createdAt,value
2023-04-12T00:00:52.771Z,98032.06
2023-04-12T00:03:21.451Z,98020.97
2023-04-12T00:05:48.850Z,98014.97
2023-04-12T00:08:16.772Z,98002.91
2023-04-12T00:10:43.524Z,97999.13
2023-04-12T00:13:10.186Z,97990.25
2023-04-12T00:15:36.951Z,97987.44
2023-04-12T00:18:03.733Z,97982.72
2023-04-12T00:20:30.348Z,97977.28
2023-04-12T00:22:57.679Z,97983.78
2023-04-12T00:25:24.435Z,97974.03
2023-04-12T00:27:51.360Z,97977.94
2023-04-12T00:30:18.069Z,97967.28
2023-04-12T00:32:44.701Z,97967.34
2023-04-12T00:35:11.331Z,97961.22
2023-04-12T00:37:38.772Z,97959.19
2023-04-12T00:40:09.196Z,97948.06
2023-04-12T00:42:38.422Z,97941.59
2023-04-12T00:45:06.790Z,97933.09
2023-04-12T00:47:36.601Z,97938.31
2023-04-12T00:50:05.845Z,97937.25
2023-04-12T00:52:36.252Z,97917.25
2023-04-12T00:55:07.455Z,97905.78
2023-04-12T00:57:37.732Z,97884.72
2023-04-12T01:00:11.225Z,97884.22
2023-04-12T01:02:39.425Z,97880.97
2023-04-12T01:05:07.429Z,97884.31
2023-04-12T01:08:05.009Z,97877.66
2023-04-12T01:10:55.553Z,97870.63
2023-04-12T01:13:32.436Z,97872.19
2023-04-12T01:16:07.535Z,97880.53
2023-04-12T01:18:40.900Z,97874.28
2023-04-12T01:21:16.580Z,97842.72
2023-04-12T01:24:06.726Z,97852.03
2023-04-12T01:26:37.151Z,97855.03
2023-04-12T01:29:11.759Z,97855.66
2023-04-12T01:31:41.630Z,97852.97
2023-04-12T01:34:11.592Z,97846.56
2023-04-12T01:36:39.837Z,97847.06
2023-04-12T01:39:07.860Z,97854.34
2023-04-12T01:41:39.977Z,97847.91
2023-04-12T01:44:06.685Z,97840.88
2023-04-12T01:46:34.465Z,97844.13
2023-04-12T01:49:01.551Z,97838.47
2023-04-12T01:51:42.223Z,97838.47
2023-04-12T01:54:11.909Z,97841.03
2023-04-12T01:56:45.291Z,97838.91
2023-04-12T01:59:14.130Z,97835.41
2023-04-12T02:01:41.025Z,97837.19
2023-04-12T02:04:09.548Z,97824.47
2023-04-12T02:06:37.653Z,97812.47
2023-04-12T02:09:07.878Z,97807.41
2023-04-12T02:11:34.801Z,97800.38
2023-04-12T02:14:01.298Z,97802.00
2023-04-12T02:16:29.316Z,97794.66
2023-04-12T02:18:57.426Z,97790.34
2023-04-12T02:21:27.814Z,97781.25
2023-04-12T02:23:54.693Z,97788.72
2023-04-12T02:26:23.327Z,97771.47
2023-04-12T02:28:49.889Z,97781.75
2023-04-12T02:31:17.039Z,97787.97
2023-04-12T02:33:43.923Z,97790.34
2023-04-12T02:36:11.395Z,97765.34
2023-04-12T02:38:37.958Z,97766.47
2023-04-12T02:41:04.557Z,97758.13
2023-04-12T02:43:32.619Z,97741.41
2023-04-12T02:45:59.228Z,97742.47
2023-04-12T02:48:26.034Z,97734.50
2023-04-12T02:50:52.592Z,97733.88
2023-04-12T02:53:19.039Z,97728.00
2023-04-12T02:55:45.501Z,97729.97
2023-04-12T02:58:12.838Z,97720.47
2023-04-12T03:00:39.309Z,97718.31
2023-04-12T03:03:06.567Z,97726.13
2023-04-12T03:05:33.394Z,97725.84
2023-04-12T03:07:59.861Z,97720.97
2023-04-12T03:10:26.344Z,97724.28
2023-04-12T03:12:52.846Z,97719.75
2023-04-12T03:15:19.431Z,97724.91
2023-04-12T03:17:46.067Z,97729.19
2023-04-12T03:20:13.484Z,97698.34
2023-04-12T03:22:40.005Z,97705.56
2023-04-12T03:25:07.014Z,97704.47
2023-04-12T03:27:33.503Z,97697.53
2023-04-12T03:30:00.422Z,97700.19
2023-04-12T03:32:26.924Z,97695.72
2023-04-12T03:34:53.479Z,97703.97
2023-04-12T03:37:19.993Z,97692.44
2023-04-12T03:39:48.197Z,97702.94
2023-04-12T03:42:25.895Z,97694.34
2023-04-12T03:44:59.228Z,97684.63
2023-04-12T03:47:25.955Z,97685.78
2023-04-12T03:52:31.433Z,97692.72
2023-04-12T03:54:57.932Z,97704.31
2023-04-12T03:57:24.429Z,97701.88
2023-04-12T03:59:52.006Z,97709.81
2023-04-12T04:02:18.711Z,97704.16
2023-04-12T04:04:46.016Z,97704.53
2023-04-12T04:07:12.613Z,97703.97
2023-04-12T04:09:39.226Z,97695.06
2023-04-12T04:12:05.927Z,97694.53
2023-04-12T04:14:34.788Z,97670.56
2023-04-12T04:17:01.226Z,97669.25
2023-04-12T04:19:27.690Z,97652.69
2023-04-12T04:21:56.826Z,97640.66
2023-04-12T04:24:25.194Z,97633.13
2023-04-12T04:26:54.317Z,97628.63
2023-04-12T04:29:20.969Z,97626.28
2023-04-12T04:31:48.527Z,97630.53
2023-04-12T04:34:16.228Z,97622.63
2023-04-12T04:36:43.721Z,97614.31
2023-04-12T04:39:10.356Z,97625.53
2023-04-12T04:41:39.624Z,97603.53
2023-04-12T04:44:09.366Z,97605.41
2023-04-12T04:46:39.688Z,97602.72
2023-04-12T04:49:06.549Z,97599.31
2023-04-12T04:51:33.301Z,97601.41
2023-04-12T04:54:00.301Z,97593.94
2023-04-12T04:56:26.893Z,97586.44
2023-04-12T04:58:56.307Z,97573.59
2023-04-12T05:01:28.627Z,97569.88
2023-04-12T05:03:55.799Z,97560.50
2023-04-12T05:06:23.047Z,97578.16
2023-04-12T05:08:49.559Z,97575.25
2023-04-12T05:11:16.292Z,97572.88
2023-04-12T05:13:42.819Z,97563.50
2023-04-12T05:16:09.666Z,97568.59
2023-04-12T05:18:36.322Z,97564.66
2023-04-12T05:21:06.071Z,97562.00
2023-04-12T05:23:37.726Z,97544.53
2023-04-12T05:26:04.893Z,97537.28
2023-04-12T05:28:31.728Z,97544.78
2023-04-12T05:30:58.581Z,97550.97
2023-04-12T05:33:25.452Z,97539.69
2023-04-12T05:35:52.040Z,97539.69
2023-04-12T05:38:18.746Z,97523.31
2023-04-12T05:40:45.250Z,97531.88
2023-04-12T05:43:12.981Z,97531.88
2023-04-12T05:45:40.651Z,97530.50
2023-04-12T05:48:07.429Z,97529.19
2023-04-12T05:50:34.068Z,97515.81
2023-04-12T05:53:01.820Z,97509.13
2023-04-12T05:55:29.200Z,97507.53
2023-04-12T05:57:55.633Z,97508.63
2023-04-12T06:00:23.549Z,97497.66
2023-04-12T06:02:50.677Z,97497.72
2023-04-12T06:05:18.222Z,97487.78
2023-04-12T06:07:48.824Z,97478.66
2023-04-12T06:10:17.254Z,97488.03
2023-04-12T06:12:44.115Z,97490.97
2023-04-12T06:15:11.020Z,97482.50
2023-04-12T06:17:38.247Z,97480.59
2023-04-12T06:20:08.181Z,97467.50
2023-04-12T06:22:35.534Z,97476.97
2023-04-12T06:25:02.231Z,97465.19
2023-04-12T06:27:28.672Z,97449.91
2023-04-12T06:29:55.160Z,97451.84
2023-04-12T06:32:22.328Z,97451.59
2023-04-12T06:34:48.866Z,97454.09
2023-04-12T06:37:15.990Z,97463.50
2023-04-12T06:39:42.639Z,97466.47
2023-04-12T06:42:09.133Z,97464.94
2023-04-12T06:44:36.754Z,97456.91
2023-04-12T06:47:03.583Z,97455.81
2023-04-12T06:49:30.126Z,97456.06
2023-04-12T06:51:56.611Z,97449.94
2023-04-12T06:54:24.054Z,97441.06
2023-04-12T06:56:50.752Z,97446.41
2023-04-12T06:59:17.702Z,97455.84
2023-04-12T07:01:44.451Z,97439.19
2023-04-12T07:04:14.320Z,97440.78
2023-04-12T07:06:40.984Z,97424.94
2023-04-12T07:09:07.503Z,97422.25
2023-04-12T07:11:34.127Z,97431.66
2023-04-12T07:14:00.668Z,97426.56
2023-04-12T07:16:31.073Z,97417.69
2023-04-12T07:18:57.704Z,97425.25
2023-04-12T07:21:24.264Z,97422.53
2023-04-12T07:23:51.741Z,97413.94
2023-04-12T07:26:21.891Z,97423.91
2023-04-12T07:28:48.559Z,97422.56
2023-04-12T07:31:15.436Z,97418.78
2023-04-12T07:33:43.294Z,97422.28
2023-04-12T07:36:11.525Z,97426.03
2023-04-12T07:38:38.214Z,97424.66
2023-04-12T07:41:04.970Z,97416.34
2023-04-12T07:43:31.488Z,97413.88
2023-04-12T07:45:58.922Z,97418.44
2023-04-12T07:48:25.489Z,97418.13
2023-04-12T07:50:52.068Z,97416.00
2023-04-12T07:53:29.146Z,97416.00
2023-04-12T07:55:56.697Z,97415.00
2023-04-12T07:58:24.866Z,97401.22
2023-04-12T08:00:51.903Z,97400.66
2023-04-12T08:03:19.240Z,97409.78
2023-04-12T08:05:47.139Z,97413.81
2023-04-12T08:08:13.639Z,97409.53
2023-04-12T08:10:40.406Z,97415.41
2023-04-12T08:13:07.333Z,97409.22
2023-04-12T08:15:33.986Z,97406.69
2023-04-12T08:18:01.375Z,97408.31
2023-04-12T08:20:27.983Z,97413.97
2023-04-12T08:22:54.975Z,97409.97
2023-04-12T08:25:22.267Z,97408.38
2023-04-12T08:27:50.401Z,97400.22
2023-04-12T08:30:17.662Z,97403.75
2023-04-12T08:32:44.462Z,97399.41
2023-04-12T08:35:12.184Z,97407.53
2023-04-12T08:37:38.887Z,97396.44
2023-04-12T08:40:07.903Z,97404.28
2023-04-12T08:42:35.247Z,97408.06
2023-04-12T08:45:08.699Z,97400.78
2023-04-12T08:47:38.046Z,97402.13
2023-04-12T08:50:09.253Z,97401.81
2023-04-12T08:52:37.700Z,97410.72
2023-04-12T08:55:06.003Z,97405.63
2023-04-12T08:57:32.754Z,97419.06
2023-04-12T09:00:04.396Z,97420.13
2023-04-12T09:02:31.538Z,97415.00
2023-04-12T09:04:58.514Z,97440.00
2023-04-12T09:07:28.180Z,97421.63
2023-04-12T09:09:55.158Z,97436.25
2023-04-12T09:12:24.208Z,97422.50
2023-04-12T09:15:13.408Z,97442.75
2023-04-12T09:17:41.498Z,97446.53
2023-04-12T09:20:21.907Z,97447.34
2023-04-12T09:22:48.868Z,97447.06
2023-04-12T09:25:15.988Z,97443.84
2023-04-12T09:27:50.832Z,97457.84
2023-04-12T09:30:19.057Z,97447.34
2023-04-12T09:32:45.677Z,97448.13
2023-04-12T09:35:12.456Z,97443.84
2023-04-12T09:37:39.148Z,97438.97
2023-04-12T09:40:10.273Z,97446.50
2023-04-12T09:42:51.323Z,97435.47
2023-04-12T09:45:26.061Z,97424.16
2023-04-12T09:47:53.778Z,97431.91
2023-04-12T09:50:33.386Z,97430.22
2023-04-12T09:53:02.337Z,97427.53
2023-04-12T09:55:31.946Z,97414.53
2023-04-12T09:58:02.306Z,97419.84
2023-04-12T10:00:30.805Z,97411.41
2023-04-12T10:02:57.715Z,97410.22
2023-04-12T10:05:26.596Z,97393.94
2023-04-12T10:07:55.279Z,97402.78
2023-04-12T10:10:22.751Z,97396.50
2023-04-12T10:12:49.500Z,97397.88
2023-04-12T10:15:21.251Z,97398.41
2023-04-12T10:17:55.074Z,97393.03
2023-04-12T10:20:24.805Z,97388.72
2023-04-12T10:22:54.126Z,97382.81
2023-04-12T10:25:22.402Z,97389.03
2023-04-12T10:27:49.095Z,97382.91
2023-04-12T10:30:29.798Z,97381.22
2023-04-12T10:33:02.447Z,97375.00
2023-04-12T10:35:54.581Z,97367.75
2023-04-12T10:38:23.247Z,97370.41
2023-04-12T10:41:19.946Z,97365.13
2023-04-12T10:43:52.774Z,97363.16
2023-04-12T10:46:38.168Z,97356.06
2023-04-12T10:49:11.896Z,97348.38
2023-04-12T10:51:41.048Z,97345.47
2023-04-12T10:54:07.554Z,97344.31
2023-04-12T10:56:42.198Z,97345.00
2023-04-12T10:59:12.357Z,97323.47
2023-04-12T11:01:39.891Z,97329.75
2023-04-12T11:04:12.481Z,97327.78
2023-04-12T11:06:59.834Z,97321.22
2023-04-12T11:09:37.279Z,97322.47
2023-04-12T11:12:03.698Z,97326.69
2023-04-12T11:14:47.145Z,97326.25
2023-04-12T11:17:13.743Z,97316.16
2023-04-12T11:19:42.762Z,97312.72
2023-04-12T11:22:12.272Z,97317.81
2023-04-12T11:24:59.976Z,97305.34
2023-04-12T11:27:28.004Z,97314.03
2023-04-12T11:30:01.952Z,97316.94
2023-04-12T11:32:30.978Z,97312.03
2023-04-12T11:34:58.270Z,97317.06
2023-04-12T11:37:27.259Z,97314.47
2023-04-12T11:39:57.070Z,97302.47
2023-04-12T11:42:25.617Z,97283.22
2023-04-12T11:44:58.622Z,97283.25
2023-04-12T11:47:27.575Z,97278.03
2023-04-12T11:49:57.145Z,97286.63
2023-04-12T11:52:32.057Z,97287.72
2023-04-12T11:55:06.633Z,97280.09
2023-04-12T11:57:35.531Z,97284.13
2023-04-12T12:00:06.001Z,97275.47
2023-04-12T12:02:41.252Z,97269.56
2023-04-12T12:05:16.552Z,97270.50
2023-04-12T12:07:43.560Z,97275.81
2023-04-12T12:10:10.734Z,97257.94
2023-04-12T12:12:37.285Z,97249.56
2023-04-12T12:15:04.151Z,97251.16
2023-04-12T12:17:35.787Z,97262.63
2023-04-12T12:20:04.530Z,97254.03
2023-04-12T12:22:31.114Z,97249.41
2023-04-12T12:24:59.378Z,97257.41
2023-04-12T12:27:34.086Z,97255.56
2023-04-12T12:30:02.378Z,97268.94
2023-04-12T12:32:37.395Z,97254.53
2023-04-12T12:35:09.503Z,97269.63
2023-04-12T12:37:36.462Z,97259.13
2023-04-12T12:40:13.484Z,97262.00
2023-04-12T12:42:47.052Z,97262.44
2023-04-12T12:45:14.451Z,97269.63
2023-04-12T12:47:53.070Z,97250.03
2023-04-12T12:50:24.640Z,97246.75
2023-04-12T12:52:52.120Z,97247.34
2023-04-12T12:55:19.025Z,97247.56
2023-04-12T12:58:01.715Z,97250.41
2023-04-12T13:00:33.001Z,97258.34
2023-04-12T13:02:59.811Z,97249.22
2023-04-12T13:05:26.756Z,97262.50
2023-04-12T13:07:53.265Z,97246.50
2023-04-12T13:10:19.755Z,97254.44
2023-04-12T13:12:46.401Z,97242.09
2023-04-12T13:15:22.345Z,97243.78
2023-04-12T13:17:52.255Z,97257.75
2023-04-12T13:20:18.974Z,97259.94
2023-04-12T13:22:45.546Z,97269.28
2023-04-12T13:25:12.040Z,97257.75
2023-04-12T13:27:38.591Z,97257.97
2023-04-12T13:30:06.376Z,97264.91
2023-04-12T13:32:32.951Z,97257.00
2023-04-12T13:34:59.492Z,97259.88
2023-04-12T13:37:26.012Z,97254.19
2023-04-12T13:39:52.842Z,97255.00
2023-04-12T13:42:19.325Z,97271.72
2023-04-12T13:44:45.907Z,97248.34
2023-04-12T13:47:12.584Z,97254.78
2023-04-12T13:49:39.191Z,97258.38
2023-04-12T13:52:05.751Z,97257.53
2023-04-12T13:54:32.322Z,97247.31
2023-04-12T13:56:59.324Z,97248.94
2023-04-12T13:59:26.677Z,97231.94
2023-04-12T14:01:54.197Z,97229.16
2023-04-12T14:04:20.998Z,97230.28
2023-04-12T14:06:47.557Z,97223.75
2023-04-12T14:09:28.042Z,97214.41
2023-04-12T14:11:56.223Z,97231.03
2023-04-12T14:14:23.281Z,97235.13
2023-04-12T14:16:56.939Z,97231.47
2023-04-12T14:19:24.599Z,97235.44
2023-04-12T14:21:51.783Z,97243.63
2023-04-12T14:24:19.823Z,97255.25
2023-04-12T14:26:46.627Z,97257.09
2023-04-12T14:29:13.624Z,97247.63
2023-04-12T14:31:40.644Z,97253.50
2023-04-12T14:34:08.804Z,97247.38
2023-04-12T14:36:35.912Z,97239.78
2023-04-12T14:39:04.046Z,97234.69
2023-04-12T14:41:31.646Z,97237.81
2023-04-12T14:43:59.986Z,97238.63
2023-04-12T14:46:28.313Z,97234.47
2023-04-12T14:48:55.537Z,97221.44
2023-04-12T14:51:23.166Z,97219.38
2023-04-12T14:53:49.916Z,97231.47
2023-04-12T14:56:21.027Z,97217.13
2023-04-12T14:58:48.916Z,97223.38
2023-04-12T15:01:18.323Z,97227.38
2023-04-12T15:03:45.841Z,97238.41
2023-04-12T15:06:13.610Z,97229.81
2023-04-12T15:08:43.216Z,97244.75
2023-04-12T15:11:11.122Z,97236.81
2023-04-12T15:13:42.003Z,97248.78
2023-04-12T15:16:09.332Z,97238.06
2023-04-12T15:18:41.799Z,97236.97
2023-04-12T15:21:10.486Z,97226.44
2023-04-12T15:23:38.117Z,97227.50
2023-04-12T15:26:06.749Z,97208.91
2023-04-12T15:28:33.425Z,97201.59
2023-04-12T15:31:01.000Z,97202.50
2023-04-12T15:33:28.353Z,97205.72
2023-04-12T15:35:57.970Z,97198.75
2023-04-12T15:38:24.885Z,97197.38
2023-04-12T15:41:00.239Z,97203.91
2023-04-12T15:43:28.088Z,97211.22
2023-04-12T15:45:55.145Z,97219.81
2023-04-12T15:48:23.315Z,97229.81
2023-04-12T15:50:51.199Z,97231.28
2023-04-12T15:53:21.338Z,97228.69
2023-04-12T15:55:48.485Z,97224.88
2023-04-12T15:58:15.117Z,97221.09
2023-04-12T16:00:42.395Z,97212.03
2023-04-12T16:03:09.233Z,97222.47
2023-04-12T16:05:36.431Z,97223.88
2023-04-12T16:08:03.501Z,97225.00
2023-04-12T16:10:30.336Z,97225.41
2023-04-12T16:12:57.338Z,97220.50
2023-04-12T16:15:24.105Z,97225.41
2023-04-12T16:17:54.583Z,97228.78
2023-04-12T16:20:22.285Z,97238.34
2023-04-12T16:22:50.537Z,97249.97
2023-04-12T16:25:17.086Z,97259.31
2023-04-12T16:27:45.050Z,97259.69
2023-04-12T16:30:12.886Z,97288.13
2023-04-12T16:32:39.556Z,97298.19
2023-04-12T16:35:06.858Z,97295.13
2023-04-12T16:37:33.433Z,97297.09
2023-04-12T16:40:00.630Z,97304.13
2023-04-12T16:42:31.865Z,97315.16
2023-04-12T16:44:58.969Z,97312.53
2023-04-12T16:47:26.831Z,97304.78
2023-04-12T16:49:53.374Z,97297.47
2023-04-12T16:52:19.969Z,97292.91
2023-04-12T16:54:47.832Z,97287.50
2023-04-12T16:57:14.414Z,97285.94
2023-04-12T16:59:42.405Z,97288.66
2023-04-12T17:02:09.071Z,97297.25
2023-04-12T17:04:35.843Z,97318.75
2023-04-12T17:07:02.489Z,97328.16
2023-04-12T17:09:29.307Z,97350.47
2023-04-12T17:11:56.612Z,97365.00
2023-04-12T17:14:23.078Z,97379.00
2023-04-12T17:16:49.535Z,97378.47
2023-04-12T17:19:16.030Z,97376.88
2023-04-12T17:21:42.783Z,97383.59
2023-04-12T17:24:10.809Z,97381.69
2023-04-12T17:26:37.798Z,97383.03
2023-04-12T17:29:06.152Z,97383.59
2023-04-12T17:31:37.004Z,97377.41
2023-04-12T17:34:03.792Z,97380.91
2023-04-12T17:36:33.931Z,97382.78
2023-04-12T17:39:04.544Z,97386.00
2023-04-12T17:41:31.453Z,97388.94
2023-04-12T17:43:59.442Z,97372.28
2023-04-12T17:46:26.514Z,97377.88
2023-04-12T17:48:53.357Z,97356.41
2023-04-12T17:51:19.886Z,97370.41
2023-04-12T17:53:46.492Z,97369.31
2023-04-12T17:56:13.298Z,97373.88
2023-04-12T17:58:39.796Z,97374.72
2023-04-12T18:01:06.731Z,97370.72
2023-04-12T18:03:34.403Z,97371.50
2023-04-12T18:06:01.127Z,97366.41
2023-04-12T18:08:28.404Z,97368.03
2023-04-12T18:10:54.911Z,97367.72
2023-04-12T18:13:21.813Z,97371.50
2023-04-12T18:15:48.609Z,97370.97
2023-04-12T18:18:15.125Z,97367.16
2023-04-12T18:20:41.620Z,97371.50
2023-04-12T18:23:08.342Z,97371.72
2023-04-12T18:25:34.920Z,97379.03
2023-04-12T18:28:02.066Z,97358.34
2023-04-12T18:30:28.646Z,97376.88
2023-04-12T18:32:55.434Z,97386.53
2023-04-12T18:35:21.976Z,97395.88
2023-04-12T18:37:48.517Z,97392.13
2023-04-12T18:40:16.049Z,97392.13
2023-04-12T18:42:46.063Z,97382.75
2023-04-12T18:45:12.579Z,97387.09
2023-04-12T18:47:40.014Z,97383.59
2023-04-12T18:50:07.154Z,97388.41
2023-04-12T18:52:34.698Z,97382.50
2023-04-12T18:55:01.336Z,97382.78
2023-04-12T18:57:27.874Z,97395.13
2023-04-12T18:59:54.910Z,97392.47
2023-04-12T19:02:21.606Z,97395.94
2023-04-12T19:04:48.283Z,97408.53
2023-04-12T19:07:16.251Z,97397.81
2023-04-12T19:09:44.345Z,97400.50
2023-04-12T19:12:11.713Z,97397.28
2023-04-12T19:14:38.685Z,97390.28
2023-04-12T19:17:05.494Z,97395.13
2023-04-12T19:19:32.292Z,97386.00
2023-04-12T19:22:00.131Z,97396.47
2023-04-12T19:24:28.612Z,97396.47
2023-04-12T19:26:56.877Z,97396.16
2023-04-12T19:29:25.746Z,97410.09
2023-04-12T19:31:54.717Z,97401.53
2023-04-12T19:34:22.749Z,97412.25
2023-04-12T19:36:49.662Z,97418.16
2023-04-12T19:39:18.194Z,97420.84
2023-04-12T19:41:49.281Z,97426.75
2023-04-12T19:44:16.110Z,97438.59
2023-04-12T19:46:43.600Z,97428.91
2023-04-12T19:49:10.511Z,97443.44
2023-04-12T19:51:39.595Z,97455.00
2023-04-12T19:54:10.618Z,97460.03
2023-04-12T19:56:37.827Z,97557.63
2023-04-12T19:59:11.567Z,97561.91
2023-04-12T20:01:51.250Z,97572.25
2023-04-12T20:04:22.263Z,97586.00
2023-04-12T20:06:52.691Z,97601.63
2023-04-12T20:09:22.444Z,97609.34
2023-04-12T20:11:50.531Z,97616.16
2023-04-12T20:14:20.540Z,97628.34
2023-04-12T20:16:48.652Z,97627.72
2023-04-12T20:19:16.678Z,97640.53
2023-04-12T20:21:44.857Z,97639.66
2023-04-12T20:24:12.655Z,97632.91
2023-04-12T20:26:39.965Z,97633.00
2023-04-12T20:29:06.900Z,97634.19
2023-04-12T20:31:34.759Z,97620.69
2023-04-12T20:34:01.814Z,97611.44
2023-04-12T20:36:30.673Z,97621.22
2023-04-12T20:38:58.913Z,97616.44
2023-04-12T20:41:27.351Z,97612.09
2023-04-12T20:43:55.015Z,97619.38
2023-04-12T20:46:26.363Z,97603.81
2023-04-12T20:48:56.561Z,97602.97
2023-04-12T20:51:24.953Z,97600.47
2023-04-12T20:53:52.242Z,97615.50
2023-04-12T20:56:19.093Z,97614.19
2023-04-12T20:58:49.866Z,97621.41
2023-04-12T21:01:16.661Z,97620.28
2023-04-12T21:03:43.549Z,97617.19
2023-04-12T21:06:11.028Z,97621.28
2023-04-12T21:08:38.918Z,97616.44
2023-04-12T21:11:06.216Z,97622.72
2023-04-12T21:13:45.272Z,97618.19
2023-04-12T21:16:15.837Z,97621.09
2023-04-12T21:18:42.776Z,97625.56
2023-04-12T21:21:09.411Z,97629.88
2023-04-12T21:23:35.938Z,97635.84
2023-04-12T21:26:02.504Z,97639.59
2023-04-12T21:28:29.841Z,97637.06
2023-04-12T21:30:58.181Z,97638.91
2023-04-12T21:33:25.043Z,97632.44
2023-04-12T21:35:55.926Z,97634.59
2023-04-12T21:38:23.441Z,97632.75
2023-04-12T21:40:50.222Z,97636.25
2023-04-12T21:43:17.309Z,97635.69
2023-04-12T21:45:44.037Z,97642.97
2023-04-12T21:48:11.148Z,97641.59
2023-04-12T21:50:38.074Z,97645.66
2023-04-12T21:53:04.588Z,97640.53
2023-04-12T21:55:31.212Z,97642.63
2023-04-12T21:57:57.833Z,97643.72
2023-04-12T22:00:27.204Z,97651.81
2023-04-12T22:02:53.895Z,97656.66
2023-04-12T22:05:20.853Z,97653.91
2023-04-12T22:07:47.728Z,97653.00
2023-04-12T22:10:14.863Z,97661.03
2023-04-12T22:12:41.406Z,97659.72
2023-04-12T22:15:09.088Z,97666.06
2023-04-12T22:17:35.782Z,97670.06
2023-04-12T22:20:03.839Z,97667.06
2023-04-12T22:22:31.831Z,97678.09
2023-04-12T22:24:58.308Z,97665.44
2023-04-12T22:27:26.523Z,97669.47
2023-04-12T22:29:53.700Z,97666.06
2023-04-12T22:32:20.729Z,97670.84
2023-04-12T22:34:54.879Z,97668.50
2023-04-12T22:37:28.357Z,97659.38
2023-04-12T22:39:55.094Z,97665.25
2023-04-12T22:42:26.465Z,97666.22
2023-04-12T22:44:54.212Z,97670.97
2023-04-12T22:47:20.776Z,97664.63
2023-04-12T22:49:50.666Z,97674.72
2023-04-12T22:52:17.731Z,97668.88
2023-04-12T22:54:44.569Z,97667.72
2023-04-12T22:57:11.056Z,97672.28
2023-04-12T22:59:37.562Z,97671.78
2023-04-12T23:02:04.476Z,97675.25
2023-04-12T23:04:31.023Z,97676.81
2023-04-12T23:06:57.554Z,97681.69
2023-04-12T23:09:24.143Z,97680.63
2023-04-12T23:11:51.553Z,97690.28
2023-04-12T23:14:18.082Z,97688.03
2023-04-12T23:16:46.132Z,97682.25
2023-04-12T23:19:14.727Z,97685.81
2023-04-12T23:21:41.852Z,97682.50
2023-04-12T23:24:08.494Z,97684.03
2023-04-12T23:26:35.885Z,97685.91
2023-04-12T23:29:03.641Z,97683.91
2023-04-12T23:31:32.305Z,97682.22
2023-04-12T23:34:06.105Z,97682.72
2023-04-12T23:36:33.628Z,97674.19
2023-04-12T23:39:00.368Z,97673.03
2023-04-12T23:41:31.611Z,97664.22
2023-04-12T23:43:58.855Z,97658.38
2023-04-12T23:46:27.180Z,97665.50
2023-04-12T23:48:53.887Z,97663.59
2023-04-12T23:51:20.466Z,97663.81
2023-04-12T23:53:47.147Z,97665.38
2023-04-12T23:56:13.606Z,97658.34
2023-04-12T23:58:40.103Z,97668.94
